sensor_id;sensor_type;location;lat;lon;timestamp;temperature;humidity
15003;DHT22;7597;53.590;10.020;2022-08-19T00:00:27;19.40;1.00
15003;DHT22;7597;53.590;10.020;2022-08-19T00:02:54;19.40;1.00
15003;DHT22;7597;53.590;10.020;2022-08-19T00:05:21;19.40;1.00
15003;DHT22;7597;53.590;10.020;2022-08-19T00:07:48;19.50;1.00
15003;DHT22;7597;53.590;10.020;2022-08-19T00:10:14;19.40;1.00
15003;DHT22;7597;53.590;10.020;2022-08-19T00:12:41;19.40;1.00
15003;DHT22;7597;53.590;10.020;2022-08-19T00:15:09;19.50;1.00
15003;DHT22;7597;53.590;10.020;2022-08-19T00:17:35;19.50;1.00
15003;DHT22;7597;53.590;10.020;2022-08-19T00:20:03;19.40;1.00
15003;DHT22;7597;53.590;10.020;2022-08-19T00:22:29;19.40;1.00
15003;DHT22;7597;53.590;10.020;2022-08-19T00:24:56;19.40;1.00
15003;DHT22;7597;53.590;10.020;2022-08-19T00:27:22;19.40;1.00
15003;DHT22;7597;53.590;10.020;2022-08-19T00:29:49;19.50;1.00
15003;DHT22;7597;53.590;10.020;2022-08-19T00:32:16;19.40;1.00
15003;DHT22;7597;53.590;10.020;2022-08-19T00:34:43;19.40;1.00
15003;DHT22;7597;53.590;10.020;2022-08-19T00:37:09;19.50;1.00
15003;DHT22;7597;53.590;10.020;2022-08-19T00:39:36;19.40;1.00
15003;DHT22;7597;53.590;10.020;2022-08-19T00:42:03;19.50;1.00
15003;DHT22;7597;53.590;10.020;2022-08-19T00:44:30;19.40;1.00
15003;DHT22;7597;53.590;10.020;2022-08-19T00:46:58;19.40;1.00
15003;DHT22;7597;53.590;10.020;2022-08-19T00:49:41;19.40;1.00
15003;DHT22;7597;53.590;10.020;2022-08-19T00:52:08;19.40;1.00
15003;DHT22;7597;53.590;10.020;2022-08-19T00:54:36;19.50;1.00
15003;DHT22;7597;53.590;10.020;2022-08-19T00:57:04;19.40;1.00
15003;DHT22;7597;53.590;10.020;2022-08-19T00:59:29;19.50;1.00
15003;DHT22;7597;53.590;10.020;2022-08-19T01:01:56;19.40;1.00
15003;DHT22;7597;53.590;10.020;2022-08-19T01:04:23;19.40;1.00
15003;DHT22;7597;53.590;10.020;2022-08-19T01:06:49;19.40;1.00
15003;DHT22;7597;53.590;10.020;2022-08-19T01:09:16;19.40;1.00
15003;DHT22;7597;53.590;10.020;2022-08-19T01:11:43;19.50;1.00
15003;DHT22;7597;53.590;10.020;2022-08-19T01:14:10;19.50;1.00
15003;DHT22;7597;53.590;10.020;2022-08-19T01:16:37;19.50;1.00
15003;DHT22;7597;53.590;10.020;2022-08-19T01:19:04;19.40;1.00
15003;DHT22;7597;53.590;10.020;2022-08-19T01:21:37;19.50;1.00
15003;DHT22;7597;53.590;10.020;2022-08-19T01:24:01;19.50;1.00
15003;DHT22;7597;53.590;10.020;2022-08-19T01:26:28;19.50;1.00
15003;DHT22;7597;53.590;10.020;2022-08-19T01:28:56;19.50;1.00
15003;DHT22;7597;53.590;10.020;2022-08-19T01:31:22;19.40;1.00
15003;DHT22;7597;53.590;10.020;2022-08-19T01:33:48;19.50;1.00
15003;DHT22;7597;53.590;10.020;2022-08-19T01:36:16;19.50;1.00
15003;DHT22;7597;53.590;10.020;2022-08-19T01:38:42;19.40;1.00
15003;DHT22;7597;53.590;10.020;2022-08-19T01:41:08;19.40;1.00
15003;DHT22;7597;53.590;10.020;2022-08-19T01:43:35;19.40;1.00
15003;DHT22;7597;53.590;10.020;2022-08-19T01:46:02;19.40;1.00
15003;DHT22;7597;53.590;10.020;2022-08-19T01:48:34;19.40;1.00
15003;DHT22;7597;53.590;10.020;2022-08-19T01:51:00;19.30;1.00
15003;DHT22;7597;53.590;10.020;2022-08-19T01:53:27;19.30;1.00
15003;DHT22;7597;53.590;10.020;2022-08-19T01:55:54;19.30;1.00
15003;DHT22;7597;53.590;10.020;2022-08-19T01:58:22;19.30;1.00
15003;DHT22;7597;53.590;10.020;2022-08-19T02:00:48;19.30;1.00
15003;DHT22;7597;53.590;10.020;2022-08-19T02:03:15;19.30;1.00
15003;DHT22;7597;53.590;10.020;2022-08-19T02:05:41;19.30;1.00
15003;DHT22;7597;53.590;10.020;2022-08-19T02:08:08;19.20;1.00
15003;DHT22;7597;53.590;10.020;2022-08-19T02:10:37;19.20;1.00
15003;DHT22;7597;53.590;10.020;2022-08-19T02:13:01;19.20;1.00
15003;DHT22;7597;53.590;10.020;2022-08-19T02:15:29;19.20;1.00
15003;DHT22;7597;53.590;10.020;2022-08-19T02:17:55;19.20;1.00
15003;DHT22;7597;53.590;10.020;2022-08-19T02:20:22;19.20;1.00
15003;DHT22;7597;53.590;10.020;2022-08-19T02:22:49;19.20;1.00
15003;DHT22;7597;53.590;10.020;2022-08-19T02:25:15;19.20;1.00
15003;DHT22;7597;53.590;10.020;2022-08-19T02:27:42;19.20;1.00
15003;DHT22;7597;53.590;10.020;2022-08-19T02:30:12;19.30;1.00
15003;DHT22;7597;53.590;10.020;2022-08-19T02:32:37;19.20;1.00
15003;DHT22;7597;53.590;10.020;2022-08-19T02:35:04;19.20;1.00
15003;DHT22;7597;53.590;10.020;2022-08-19T02:37:31;19.20;1.00
15003;DHT22;7597;53.590;10.020;2022-08-19T02:40:03;19.20;1.00
15003;DHT22;7597;53.590;10.020;2022-08-19T02:42:30;19.20;1.00
15003;DHT22;7597;53.590;10.020;2022-08-19T02:44:57;19.20;1.00
15003;DHT22;7597;53.590;10.020;2022-08-19T02:47:23;19.20;1.00
15003;DHT22;7597;53.590;10.020;2022-08-19T02:49:50;18.90;1.00
15003;DHT22;7597;53.590;10.020;2022-08-19T02:52:17;19.20;1.00
15003;DHT22;7597;53.590;10.020;2022-08-19T02:54:44;19.10;1.00
15003;DHT22;7597;53.590;10.020;2022-08-19T02:57:11;19.10;1.00
15003;DHT22;7597;53.590;10.020;2022-08-19T02:59:37;19.10;1.00
15003;DHT22;7597;53.590;10.020;2022-08-19T03:02:04;19.10;1.00
15003;DHT22;7597;53.590;10.020;2022-08-19T03:04:31;19.00;1.00
15003;DHT22;7597;53.590;10.020;2022-08-19T03:06:58;19.00;1.00
15003;DHT22;7597;53.590;10.020;2022-08-19T03:09:25;19.00;1.00
15003;DHT22;7597;53.590;10.020;2022-08-19T03:11:52;19.00;1.00
15003;DHT22;7597;53.590;10.020;2022-08-19T03:14:18;19.00;1.00
15003;DHT22;7597;53.590;10.020;2022-08-19T03:16:47;19.00;1.00
15003;DHT22;7597;53.590;10.020;2022-08-19T03:19:12;19.00;1.00
15003;DHT22;7597;53.590;10.020;2022-08-19T03:21:38;19.00;1.00
15003;DHT22;7597;53.590;10.020;2022-08-19T03:24:07;19.00;1.00
15003;DHT22;7597;53.590;10.020;2022-08-19T03:26:33;19.00;1.00
15003;DHT22;7597;53.590;10.020;2022-08-19T03:29:03;18.90;1.00
15003;DHT22;7597;53.590;10.020;2022-08-19T03:31:29;19.00;1.00
15003;DHT22;7597;53.590;10.020;2022-08-19T03:33:55;18.90;1.00
15003;DHT22;7597;53.590;10.020;2022-08-19T03:36:23;18.90;1.00
15003;DHT22;7597;53.590;10.020;2022-08-19T03:38:52;18.90;1.00
15003;DHT22;7597;53.590;10.020;2022-08-19T03:41:17;18.90;1.00
15003;DHT22;7597;53.590;10.020;2022-08-19T03:43:43;18.80;1.00
15003;DHT22;7597;53.590;10.020;2022-08-19T03:46:11;18.80;1.00
15003;DHT22;7597;53.590;10.020;2022-08-19T03:48:37;18.80;1.00
15003;DHT22;7597;53.590;10.020;2022-08-19T03:51:04;18.80;1.00
15003;DHT22;7597;53.590;10.020;2022-08-19T03:53:31;18.80;1.00
15003;DHT22;7597;53.590;10.020;2022-08-19T03:55:57;18.80;1.00
15003;DHT22;7597;53.590;10.020;2022-08-19T03:58:24;18.80;1.00
15003;DHT22;7597;53.590;10.020;2022-08-19T04:00:50;18.80;1.00
15003;DHT22;7597;53.590;10.020;2022-08-19T04:03:17;18.70;1.00
15003;DHT22;7597;53.590;10.020;2022-08-19T04:05:44;18.70;1.00
15003;DHT22;7597;53.590;10.020;2022-08-19T04:08:10;18.70;1.00
15003;DHT22;7597;53.590;10.020;2022-08-19T04:10:37;18.70;1.00
15003;DHT22;7597;53.590;10.020;2022-08-19T04:13:04;18.70;1.00
15003;DHT22;7597;53.590;10.020;2022-08-19T04:15:31;18.70;1.00
15003;DHT22;7597;53.590;10.020;2022-08-19T04:17:57;18.70;1.00
15003;DHT22;7597;53.590;10.020;2022-08-19T04:20:24;18.80;1.00
15003;DHT22;7597;53.590;10.020;2022-08-19T04:22:51;18.80;1.00
15003;DHT22;7597;53.590;10.020;2022-08-19T04:25:18;18.80;1.00
15003;DHT22;7597;53.590;10.020;2022-08-19T04:27:45;18.80;1.00
15003;DHT22;7597;53.590;10.020;2022-08-19T04:30:12;18.80;1.00
15003;DHT22;7597;53.590;10.020;2022-08-19T04:32:39;18.90;1.00
15003;DHT22;7597;53.590;10.020;2022-08-19T04:35:06;18.90;1.00
15003;DHT22;7597;53.590;10.020;2022-08-19T04:37:32;18.90;1.00
15003;DHT22;7597;53.590;10.020;2022-08-19T04:39:59;18.90;1.00
15003;DHT22;7597;53.590;10.020;2022-08-19T04:42:32;19.00;1.00
15003;DHT22;7597;53.590;10.020;2022-08-19T04:45:07;19.00;1.00
15003;DHT22;7597;53.590;10.020;2022-08-19T04:47:34;19.00;1.00
15003;DHT22;7597;53.590;10.020;2022-08-19T04:50:00;19.00;1.00
15003;DHT22;7597;53.590;10.020;2022-08-19T04:52:27;19.00;1.00
15003;DHT22;7597;53.590;10.020;2022-08-19T04:54:54;19.00;1.00
15003;DHT22;7597;53.590;10.020;2022-08-19T04:57:21;19.00;1.00
15003;DHT22;7597;53.590;10.020;2022-08-19T04:59:48;18.90;1.00
15003;DHT22;7597;53.590;10.020;2022-08-19T05:02:14;19.00;1.00
15003;DHT22;7597;53.590;10.020;2022-08-19T05:04:41;19.00;1.00
15003;DHT22;7597;53.590;10.020;2022-08-19T05:07:08;19.00;1.00
15003;DHT22;7597;53.590;10.020;2022-08-19T05:09:35;19.00;1.00
15003;DHT22;7597;53.590;10.020;2022-08-19T05:12:02;19.00;1.00
15003;DHT22;7597;53.590;10.020;2022-08-19T05:14:30;19.00;1.00
15003;DHT22;7597;53.590;10.020;2022-08-19T05:16:56;19.10;1.00
15003;DHT22;7597;53.590;10.020;2022-08-19T05:19:23;19.10;1.00
15003;DHT22;7597;53.590;10.020;2022-08-19T05:21:55;19.10;1.00
15003;DHT22;7597;53.590;10.020;2022-08-19T05:24:28;19.10;1.00
15003;DHT22;7597;53.590;10.020;2022-08-19T05:26:54;19.20;1.00
15003;DHT22;7597;53.590;10.020;2022-08-19T05:29:21;19.30;1.00
15003;DHT22;7597;53.590;10.020;2022-08-19T05:31:48;19.30;1.00
15003;DHT22;7597;53.590;10.020;2022-08-19T05:34:16;19.20;1.00
15003;DHT22;7597;53.590;10.020;2022-08-19T05:36:42;19.30;1.00
15003;DHT22;7597;53.590;10.020;2022-08-19T05:39:10;19.30;1.00
15003;DHT22;7597;53.590;10.020;2022-08-19T05:41:35;19.30;1.00
15003;DHT22;7597;53.590;10.020;2022-08-19T05:44:02;19.30;1.00
15003;DHT22;7597;53.590;10.020;2022-08-19T05:46:29;19.30;1.00
15003;DHT22;7597;53.590;10.020;2022-08-19T05:48:56;19.30;1.00
15003;DHT22;7597;53.590;10.020;2022-08-19T05:51:23;19.30;1.00
15003;DHT22;7597;53.590;10.020;2022-08-19T05:53:51;19.30;1.00
15003;DHT22;7597;53.590;10.020;2022-08-19T05:56:18;19.30;1.00
15003;DHT22;7597;53.590;10.020;2022-08-19T05:58:45;19.30;1.00
15003;DHT22;7597;53.590;10.020;2022-08-19T06:01:14;19.30;1.00
15003;DHT22;7597;53.590;10.020;2022-08-19T06:03:39;19.30;1.00
15003;DHT22;7597;53.590;10.020;2022-08-19T06:06:07;19.20;1.00
15003;DHT22;7597;53.590;10.020;2022-08-19T06:08:34;19.20;1.00
15003;DHT22;7597;53.590;10.020;2022-08-19T06:13:33;19.20;1.00
15003;DHT22;7597;53.590;10.020;2022-08-19T06:15:59;19.30;1.00
15003;DHT22;7597;53.590;10.020;2022-08-19T06:18:26;19.30;1.00
15003;DHT22;7597;53.590;10.020;2022-08-19T06:20:53;19.30;1.00
15003;DHT22;7597;53.590;10.020;2022-08-19T06:23:19;19.30;1.00
15003;DHT22;7597;53.590;10.020;2022-08-19T06:25:46;19.30;1.00
15003;DHT22;7597;53.590;10.020;2022-08-19T06:28:13;19.40;1.00
15003;DHT22;7597;53.590;10.020;2022-08-19T06:30:39;19.40;1.00
15003;DHT22;7597;53.590;10.020;2022-08-19T06:33:06;19.40;1.00
15003;DHT22;7597;53.590;10.020;2022-08-19T06:35:33;19.50;1.00
15003;DHT22;7597;53.590;10.020;2022-08-19T06:37:59;19.60;1.00
15003;DHT22;7597;53.590;10.020;2022-08-19T06:40:26;19.70;1.00
15003;DHT22;7597;53.590;10.020;2022-08-19T06:42:53;19.70;1.00
15003;DHT22;7597;53.590;10.020;2022-08-19T06:45:19;19.80;1.00
15003;DHT22;7597;53.590;10.020;2022-08-19T06:47:46;19.80;1.00
15003;DHT22;7597;53.590;10.020;2022-08-19T06:50:13;19.80;1.00
15003;DHT22;7597;53.590;10.020;2022-08-19T06:52:39;19.80;1.00
15003;DHT22;7597;53.590;10.020;2022-08-19T06:55:07;19.80;1.00
15003;DHT22;7597;53.590;10.020;2022-08-19T06:57:34;19.80;1.00
15003;DHT22;7597;53.590;10.020;2022-08-19T07:00:01;19.80;1.00
15003;DHT22;7597;53.590;10.020;2022-08-19T07:02:28;19.80;1.00
15003;DHT22;7597;53.590;10.020;2022-08-19T07:04:54;19.70;1.00
15003;DHT22;7597;53.590;10.020;2022-08-19T07:07:21;19.70;1.00
15003;DHT22;7597;53.590;10.020;2022-08-19T07:09:48;19.70;1.00
15003;DHT22;7597;53.590;10.020;2022-08-19T07:12:14;19.70;1.00
15003;DHT22;7597;53.590;10.020;2022-08-19T07:14:41;19.70;1.00
15003;DHT22;7597;53.590;10.020;2022-08-19T07:17:09;19.80;1.00
15003;DHT22;7597;53.590;10.020;2022-08-19T07:19:34;19.80;1.00
15003;DHT22;7597;53.590;10.020;2022-08-19T07:22:02;19.80;1.00
15003;DHT22;7597;53.590;10.020;2022-08-19T07:24:28;19.80;1.00
15003;DHT22;7597;53.590;10.020;2022-08-19T07:26:55;19.90;1.00
15003;DHT22;7597;53.590;10.020;2022-08-19T07:29:21;20.00;1.00
15003;DHT22;7597;53.590;10.020;2022-08-19T07:31:49;20.00;1.00
15003;DHT22;7597;53.590;10.020;2022-08-19T07:34:15;20.20;1.00
15003;DHT22;7597;53.590;10.020;2022-08-19T07:36:42;20.20;1.00
15003;DHT22;7597;53.590;10.020;2022-08-19T07:39:12;20.30;1.00
15003;DHT22;7597;53.590;10.020;2022-08-19T07:41:37;20.50;1.00
15003;DHT22;7597;53.590;10.020;2022-08-19T07:44:04;20.50;1.00
15003;DHT22;7597;53.590;10.020;2022-08-19T07:46:31;20.50;1.00
15003;DHT22;7597;53.590;10.020;2022-08-19T07:48:58;20.60;1.00
15003;DHT22;7597;53.590;10.020;2022-08-19T07:51:25;20.60;1.00
15003;DHT22;7597;53.590;10.020;2022-08-19T07:53:52;20.70;1.00
15003;DHT22;7597;53.590;10.020;2022-08-19T07:56:20;20.80;1.00
15003;DHT22;7597;53.590;10.020;2022-08-19T07:58:46;20.80;1.00
15003;DHT22;7597;53.590;10.020;2022-08-19T08:01:18;20.80;1.00
15003;DHT22;7597;53.590;10.020;2022-08-19T08:03:38;20.80;1.00
15003;DHT22;7597;53.590;10.020;2022-08-19T08:06:11;20.80;1.00
15003;DHT22;7597;53.590;10.020;2022-08-19T08:08:56;20.70;1.00
15003;DHT22;7597;53.590;10.020;2022-08-19T08:11:28;20.70;1.00
15003;DHT22;7597;53.590;10.020;2022-08-19T08:13:55;20.60;1.00
15003;DHT22;7597;53.590;10.020;2022-08-19T08:16:22;20.50;1.00
15003;DHT22;7597;53.590;10.020;2022-08-19T08:18:48;19.90;1.00
15003;DHT22;7597;53.590;10.020;2022-08-19T08:21:15;20.50;1.00
15003;DHT22;7597;53.590;10.020;2022-08-19T08:23:42;20.50;1.00
15003;DHT22;7597;53.590;10.020;2022-08-19T08:26:08;20.40;1.00
15003;DHT22;7597;53.590;10.020;2022-08-19T08:28:35;20.40;1.00
15003;DHT22;7597;53.590;10.020;2022-08-19T08:31:02;20.50;1.00
15003;DHT22;7597;53.590;10.020;2022-08-19T08:33:28;20.50;1.00
15003;DHT22;7597;53.590;10.020;2022-08-19T08:35:55;20.50;1.00
15003;DHT22;7597;53.590;10.020;2022-08-19T08:38:22;20.50;1.00
15003;DHT22;7597;53.590;10.020;2022-08-19T08:40:53;20.50;1.00
15003;DHT22;7597;53.590;10.020;2022-08-19T08:43:27;20.50;1.00
15003;DHT22;7597;53.590;10.020;2022-08-19T08:45:59;20.40;1.00
15003;DHT22;7597;53.590;10.020;2022-08-19T08:48:29;20.40;1.00
15003;DHT22;7597;53.590;10.020;2022-08-19T08:50:51;20.50;1.00
15003;DHT22;7597;53.590;10.020;2022-08-19T08:53:18;20.50;1.00
15003;DHT22;7597;53.590;10.020;2022-08-19T08:55:44;20.40;1.00
15003;DHT22;7597;53.590;10.020;2022-08-19T08:58:13;20.40;1.00
15003;DHT22;7597;53.590;10.020;2022-08-19T09:00:39;20.50;1.00
15003;DHT22;7597;53.590;10.020;2022-08-19T09:03:09;20.50;1.00
15003;DHT22;7597;53.590;10.020;2022-08-19T09:05:40;20.60;1.00
15003;DHT22;7597;53.590;10.020;2022-08-19T09:08:07;20.60;1.00
15003;DHT22;7597;53.590;10.020;2022-08-19T09:10:37;20.60;1.00
15003;DHT22;7597;53.590;10.020;2022-08-19T09:13:14;20.70;1.00
15003;DHT22;7597;53.590;10.020;2022-08-19T09:15:36;20.80;1.00
15003;DHT22;7597;53.590;10.020;2022-08-19T09:18:02;20.90;1.00
15003;DHT22;7597;53.590;10.020;2022-08-19T09:20:28;20.90;1.00
15003;DHT22;7597;53.590;10.020;2022-08-19T09:22:55;20.90;1.00
15003;DHT22;7597;53.590;10.020;2022-08-19T09:25:22;20.90;1.00
15003;DHT22;7597;53.590;10.020;2022-08-19T09:27:49;20.90;1.00
15003;DHT22;7597;53.590;10.020;2022-08-19T09:30:17;20.80;1.00
15003;DHT22;7597;53.590;10.020;2022-08-19T09:32:42;20.90;1.00
15003;DHT22;7597;53.590;10.020;2022-08-19T09:35:09;20.90;1.00
15003;DHT22;7597;53.590;10.020;2022-08-19T09:37:35;20.90;1.00
15003;DHT22;7597;53.590;10.020;2022-08-19T09:40:06;20.80;1.00
15003;DHT22;7597;53.590;10.020;2022-08-19T09:42:33;20.90;1.00
15003;DHT22;7597;53.590;10.020;2022-08-19T09:45:00;21.00;1.00
15003;DHT22;7597;53.590;10.020;2022-08-19T09:47:26;21.10;1.00
15003;DHT22;7597;53.590;10.020;2022-08-19T09:49:53;21.10;1.00
15003;DHT22;7597;53.590;10.020;2022-08-19T09:52:20;21.10;1.00
15003;DHT22;7597;53.590;10.020;2022-08-19T09:54:47;21.20;1.00
15003;DHT22;7597;53.590;10.020;2022-08-19T09:57:14;21.30;1.00
15003;DHT22;7597;53.590;10.020;2022-08-19T09:59:40;21.40;1.00
15003;DHT22;7597;53.590;10.020;2022-08-19T10:02:07;21.40;1.00
15003;DHT22;7597;53.590;10.020;2022-08-19T10:04:34;21.40;1.00
15003;DHT22;7597;53.590;10.020;2022-08-19T10:07:06;21.40;1.00
15003;DHT22;7597;53.590;10.020;2022-08-19T10:09:33;21.30;1.00
15003;DHT22;7597;53.590;10.020;2022-08-19T10:12:00;21.00;1.00
15003;DHT22;7597;53.590;10.020;2022-08-19T10:14:26;21.30;1.00
15003;DHT22;7597;53.590;10.020;2022-08-19T10:16:53;21.40;1.00
15003;DHT22;7597;53.590;10.020;2022-08-19T10:19:20;21.30;1.00
15003;DHT22;7597;53.590;10.020;2022-08-19T10:21:47;21.40;1.00
15003;DHT22;7597;53.590;10.020;2022-08-19T10:24:13;21.60;1.00
15003;DHT22;7597;53.590;10.020;2022-08-19T10:26:40;21.80;1.00
15003;DHT22;7597;53.590;10.020;2022-08-19T10:29:08;21.90;1.00
15003;DHT22;7597;53.590;10.020;2022-08-19T10:31:35;22.10;1.00
15003;DHT22;7597;53.590;10.020;2022-08-19T10:34:02;22.10;1.00
15003;DHT22;7597;53.590;10.020;2022-08-19T10:36:30;22.10;1.00
15003;DHT22;7597;53.590;10.020;2022-08-19T10:38:56;22.10;1.00
15003;DHT22;7597;53.590;10.020;2022-08-19T10:41:23;22.00;1.00
15003;DHT22;7597;53.590;10.020;2022-08-19T10:43:52;22.00;1.00
15003;DHT22;7597;53.590;10.020;2022-08-19T10:46:18;21.90;1.00
15003;DHT22;7597;53.590;10.020;2022-08-19T10:48:45;21.90;1.00
15003;DHT22;7597;53.590;10.020;2022-08-19T10:51:12;21.80;1.00
15003;DHT22;7597;53.590;10.020;2022-08-19T10:53:44;21.90;1.00
15003;DHT22;7597;53.590;10.020;2022-08-19T10:56:11;21.90;1.00
15003;DHT22;7597;53.590;10.020;2022-08-19T10:58:45;22.00;1.00
15003;DHT22;7597;53.590;10.020;2022-08-19T11:01:11;21.90;1.00
15003;DHT22;7597;53.590;10.020;2022-08-19T11:03:38;21.90;1.00
15003;DHT22;7597;53.590;10.020;2022-08-19T11:06:06;21.90;1.00
15003;DHT22;7597;53.590;10.020;2022-08-19T11:08:33;21.80;1.00
15003;DHT22;7597;53.590;10.020;2022-08-19T11:11:00;22.00;1.00
15003;DHT22;7597;53.590;10.020;2022-08-19T11:13:27;22.00;1.00
15003;DHT22;7597;53.590;10.020;2022-08-19T11:15:58;21.90;1.00
15003;DHT22;7597;53.590;10.020;2022-08-19T11:18:24;21.70;1.00
15003;DHT22;7597;53.590;10.020;2022-08-19T11:20:50;21.90;1.00
15003;DHT22;7597;53.590;10.020;2022-08-19T11:23:17;22.20;1.00
15003;DHT22;7597;53.590;10.020;2022-08-19T11:25:44;22.40;1.00
15003;DHT22;7597;53.590;10.020;2022-08-19T11:28:11;22.60;1.00
15003;DHT22;7597;53.590;10.020;2022-08-19T11:30:38;22.70;1.00
15003;DHT22;7597;53.590;10.020;2022-08-19T11:33:04;22.70;1.00
15003;DHT22;7597;53.590;10.020;2022-08-19T11:35:31;23.10;1.00
15003;DHT22;7597;53.590;10.020;2022-08-19T11:37:58;23.70;1.00
15003;DHT22;7597;53.590;10.020;2022-08-19T11:40:24;24.20;1.00
15003;DHT22;7597;53.590;10.020;2022-08-19T11:42:51;24.50;1.00
15003;DHT22;7597;53.590;10.020;2022-08-19T11:45:24;24.50;1.00
15003;DHT22;7597;53.590;10.020;2022-08-19T11:47:50;24.40;1.00
15003;DHT22;7597;53.590;10.020;2022-08-19T11:50:17;24.60;1.00
15003;DHT22;7597;53.590;10.020;2022-08-19T11:52:44;24.60;1.00
15003;DHT22;7597;53.590;10.020;2022-08-19T11:55:12;25.00;1.00
15003;DHT22;7597;53.590;10.020;2022-08-19T11:57:38;24.90;1.00
15003;DHT22;7597;53.590;10.020;2022-08-19T12:00:05;25.10;1.00
15003;DHT22;7597;53.590;10.020;2022-08-19T12:02:33;24.70;1.00
15003;DHT22;7597;53.590;10.020;2022-08-19T12:04:59;24.70;1.00
15003;DHT22;7597;53.590;10.020;2022-08-19T12:07:26;24.40;1.00
15003;DHT22;7597;53.590;10.020;2022-08-19T12:09:53;24.40;1.00
15003;DHT22;7597;53.590;10.020;2022-08-19T12:12:19;24.00;1.00
15003;DHT22;7597;53.590;10.020;2022-08-19T12:14:47;24.10;1.00
15003;DHT22;7597;53.590;10.020;2022-08-19T12:17:14;24.00;1.00
15003;DHT22;7597;53.590;10.020;2022-08-19T12:19:41;24.00;1.00
15003;DHT22;7597;53.590;10.020;2022-08-19T12:22:07;24.10;1.00
15003;DHT22;7597;53.590;10.020;2022-08-19T12:24:34;24.10;1.00
15003;DHT22;7597;53.590;10.020;2022-08-19T12:27:00;24.10;1.00
15003;DHT22;7597;53.590;10.020;2022-08-19T12:29:27;24.40;1.00
15003;DHT22;7597;53.590;10.020;2022-08-19T12:31:55;26.10;1.00
15003;DHT22;7597;53.590;10.020;2022-08-19T12:34:21;26.00;1.00
15003;DHT22;7597;53.590;10.020;2022-08-19T12:36:48;26.40;1.00
15003;DHT22;7597;53.590;10.020;2022-08-19T12:39:15;27.30;1.00
15003;DHT22;7597;53.590;10.020;2022-08-19T12:41:42;27.20;1.00
15003;DHT22;7597;53.590;10.020;2022-08-19T12:44:09;27.50;1.00
15003;DHT22;7597;53.590;10.020;2022-08-19T12:46:35;27.80;1.00
15003;DHT22;7597;53.590;10.020;2022-08-19T12:49:02;28.00;1.00
15003;DHT22;7597;53.590;10.020;2022-08-19T12:51:29;28.00;1.00
15003;DHT22;7597;53.590;10.020;2022-08-19T12:53:55;28.10;1.00
15003;DHT22;7597;53.590;10.020;2022-08-19T12:56:22;28.10;1.00
15003;DHT22;7597;53.590;10.020;2022-08-19T12:58:49;28.20;1.00
15003;DHT22;7597;53.590;10.020;2022-08-19T13:01:17;28.30;1.00
15003;DHT22;7597;53.590;10.020;2022-08-19T13:03:44;28.40;1.00
15003;DHT22;7597;53.590;10.020;2022-08-19T13:06:10;28.50;1.00
15003;DHT22;7597;53.590;10.020;2022-08-19T13:08:36;28.70;1.00
15003;DHT22;7597;53.590;10.020;2022-08-19T13:11:08;28.30;1.00
15003;DHT22;7597;53.590;10.020;2022-08-19T13:13:33;27.90;1.00
15003;DHT22;7597;53.590;10.020;2022-08-19T13:16:00;27.60;1.00
15003;DHT22;7597;53.590;10.020;2022-08-19T13:18:27;27.40;1.00
15003;DHT22;7597;53.590;10.020;2022-08-19T13:20:54;27.00;1.00
15003;DHT22;7597;53.590;10.020;2022-08-19T13:23:20;26.60;1.00
15003;DHT22;7597;53.590;10.020;2022-08-19T13:26:03;26.30;1.00
15003;DHT22;7597;53.590;10.020;2022-08-19T13:28:29;26.10;1.00
15003;DHT22;7597;53.590;10.020;2022-08-19T13:30:56;25.90;1.00
15003;DHT22;7597;53.590;10.020;2022-08-19T13:33:29;26.00;1.00
15003;DHT22;7597;53.590;10.020;2022-08-19T13:35:57;26.00;1.00
15003;DHT22;7597;53.590;10.020;2022-08-19T13:38:23;26.40;1.00
15003;DHT22;7597;53.590;10.020;2022-08-19T13:40:50;26.50;1.00
15003;DHT22;7597;53.590;10.020;2022-08-19T13:43:17;26.60;1.00
15003;DHT22;7597;53.590;10.020;2022-08-19T13:45:43;26.50;1.00
15003;DHT22;7597;53.590;10.020;2022-08-19T13:48:10;26.40;1.00
15003;DHT22;7597;53.590;10.020;2022-08-19T13:50:40;26.50;1.00
15003;DHT22;7597;53.590;10.020;2022-08-19T13:53:05;26.50;1.00
15003;DHT22;7597;53.590;10.020;2022-08-19T13:55:32;26.20;1.00
15003;DHT22;7597;53.590;10.020;2022-08-19T13:57:59;26.20;1.00
15003;DHT22;7597;53.590;10.020;2022-08-19T14:00:26;26.00;1.00
15003;DHT22;7597;53.590;10.020;2022-08-19T14:02:53;25.90;1.00
15003;DHT22;7597;53.590;10.020;2022-08-19T14:05:19;25.90;1.00
15003;DHT22;7597;53.590;10.020;2022-08-19T14:07:46;25.70;1.00
15003;DHT22;7597;53.590;10.020;2022-08-19T14:10:12;25.40;1.00
15003;DHT22;7597;53.590;10.020;2022-08-19T14:12:39;25.30;1.00
15003;DHT22;7597;53.590;10.020;2022-08-19T14:15:06;25.20;1.00
15003;DHT22;7597;53.590;10.020;2022-08-19T14:17:33;25.10;1.00
15003;DHT22;7597;53.590;10.020;2022-08-19T14:20:00;24.90;1.00
15003;DHT22;7597;53.590;10.020;2022-08-19T14:22:27;24.80;1.00
15003;DHT22;7597;53.590;10.020;2022-08-19T14:24:54;24.80;1.00
15003;DHT22;7597;53.590;10.020;2022-08-19T14:27:21;24.80;1.00
15003;DHT22;7597;53.590;10.020;2022-08-19T14:29:47;24.60;1.00
15003;DHT22;7597;53.590;10.020;2022-08-19T14:32:14;24.50;1.00
15003;DHT22;7597;53.590;10.020;2022-08-19T14:34:41;24.50;1.00
15003;DHT22;7597;53.590;10.020;2022-08-19T14:37:07;24.50;1.00
15003;DHT22;7597;53.590;10.020;2022-08-19T14:39:34;24.60;1.00
15003;DHT22;7597;53.590;10.020;2022-08-19T14:42:01;24.70;1.00
15003;DHT22;7597;53.590;10.020;2022-08-19T14:44:28;25.10;1.00
15003;DHT22;7597;53.590;10.020;2022-08-19T14:46:55;25.00;1.00
15003;DHT22;7597;53.590;10.020;2022-08-19T14:49:22;25.20;1.00
15003;DHT22;7597;53.590;10.020;2022-08-19T14:51:48;25.40;1.00
15003;DHT22;7597;53.590;10.020;2022-08-19T14:54:16;25.50;1.00
15003;DHT22;7597;53.590;10.020;2022-08-19T14:56:42;25.50;1.00
15003;DHT22;7597;53.590;10.020;2022-08-19T14:59:09;25.50;1.00
15003;DHT22;7597;53.590;10.020;2022-08-19T15:01:35;25.50;1.00
15003;DHT22;7597;53.590;10.020;2022-08-19T15:04:02;25.50;1.00
15003;DHT22;7597;53.590;10.020;2022-08-19T15:06:29;25.50;1.00
15003;DHT22;7597;53.590;10.020;2022-08-19T15:08:56;25.50;1.00
15003;DHT22;7597;53.590;10.020;2022-08-19T15:11:31;25.60;1.00
15003;DHT22;7597;53.590;10.020;2022-08-19T15:13:58;25.50;1.00
15003;DHT22;7597;53.590;10.020;2022-08-19T15:16:31;25.50;1.00
15003;DHT22;7597;53.590;10.020;2022-08-19T15:18:59;25.40;1.00
15003;DHT22;7597;53.590;10.020;2022-08-19T15:21:26;25.30;1.00
15003;DHT22;7597;53.590;10.020;2022-08-19T15:23:53;25.30;1.00
15003;DHT22;7597;53.590;10.020;2022-08-19T15:26:19;25.20;1.00
15003;DHT22;7597;53.590;10.020;2022-08-19T15:28:47;25.20;1.00
15003;DHT22;7597;53.590;10.020;2022-08-19T15:31:17;25.10;1.00
15003;DHT22;7597;53.590;10.020;2022-08-19T15:33:41;25.00;1.00
15003;DHT22;7597;53.590;10.020;2022-08-19T15:36:08;25.10;1.00
15003;DHT22;7597;53.590;10.020;2022-08-19T15:38:35;25.40;1.00
15003;DHT22;7597;53.590;10.020;2022-08-19T15:41:02;25.40;1.00
15003;DHT22;7597;53.590;10.020;2022-08-19T15:43:35;25.50;1.00
15003;DHT22;7597;53.590;10.020;2022-08-19T15:46:00;25.60;1.00